Terminal Aerodrome Forecast
Issued by NWS Upton, NY

Home | Current Version | Previous Version | Text Only | Print | Product List | Glossary On
Versions: 1 2 3 4 5 6 7 8 9 10 11 12 13 14 15 16 17 18 19 20 21 22 23 24 25 26 27 28 29 30 31 32 33 34 35 36 37 38 39 40
052
FTUS41 KOKX 280810 AAC
TAFJFK
TAF AMD
KJFK 280810Z 2808/2912 19005KT P6SM FEW005
     FM281200 19005KT P6SM SCT250
     FM281500 18007KT P6SM BKN200
     FM281800 17011KT P6SM BKN200
     FM282000 17014KT P6SM BKN200
     FM282300 17010KT P6SM BKN150
     FM290100 18005KT P6SM VCSH FEW080 BKN150
     FM290600 18005KT 5SM -SHRA SCT060 BKN120
     FM290900 13010KT 5SM SHRA BKN050 PROB30 2910/2912 2SM +TSRA
      BKN040CB=

USA.gov is the U.S. government's official web portal to all federal, state and local government web resources and services.